createdAt,value
2022-12-14T00:01:28.718Z,6.13
2022-12-14T00:03:56.435Z,6.10
2022-12-14T00:06:25.660Z,5.50
2022-12-14T00:08:54.442Z,5.43
2022-12-14T00:11:24.971Z,5.40
2022-12-14T00:13:57.053Z,5.90
2022-12-14T00:16:25.758Z,5.63
2022-12-14T00:18:54.225Z,5.63
2022-12-14T00:21:21.788Z,5.07
2022-12-14T00:23:50.434Z,5.97
2022-12-14T00:26:22.712Z,4.90
2022-12-14T00:28:52.167Z,6.30
2022-12-14T00:31:19.540Z,5.80
2022-12-14T00:33:46.734Z,5.80
2022-12-14T00:36:14.706Z,5.37
2022-12-14T00:38:42.140Z,6.40
2022-12-14T00:41:09.855Z,5.93
2022-12-14T00:43:36.991Z,5.60
2022-12-14T00:46:04.066Z,5.00
2022-12-14T00:48:31.639Z,6.23
2022-12-14T00:50:59.053Z,5.67
2022-12-14T00:53:26.053Z,5.57
2022-12-14T00:55:53.252Z,5.47
2022-12-14T00:58:22.367Z,5.47
2022-12-14T01:01:02.371Z,5.10
2022-12-14T01:03:29.559Z,5.37
2022-12-14T01:05:56.841Z,5.77
2022-12-14T01:08:24.758Z,5.23
2022-12-14T01:10:52.200Z,6.50
2022-12-14T01:13:19.183Z,5.43
2022-12-14T01:15:45.956Z,5.40
2022-12-14T01:18:13.067Z,4.80
2022-12-14T01:20:39.923Z,7.00
2022-12-14T01:23:06.695Z,5.23
2022-12-14T01:25:33.457Z,4.43
2022-12-14T01:28:00.332Z,5.47
2022-12-14T01:30:27.103Z,4.50
2022-12-14T01:32:53.795Z,5.40
2022-12-14T01:35:20.553Z,4.83
2022-12-14T01:37:48.999Z,4.97
2022-12-14T01:40:16.984Z,5.03
2022-12-14T01:42:43.739Z,4.87
2022-12-14T01:45:19.819Z,5.00
2022-12-14T01:47:53.030Z,4.63
2022-12-14T01:50:39.760Z,5.33
2022-12-14T01:53:12.049Z,4.97
2022-12-14T01:55:45.133Z,4.50
2022-12-14T01:58:19.917Z,5.20
2022-12-14T02:00:47.058Z,4.63
2022-12-14T02:03:22.434Z,3.80
2022-12-14T02:06:01.138Z,5.20
2022-12-14T02:08:28.787Z,4.30
2022-12-14T02:10:56.268Z,4.70
2022-12-14T02:13:25.904Z,5.17
2022-12-14T02:15:53.309Z,4.67
2022-12-14T02:18:23.147Z,5.00
2022-12-14T02:21:11.043Z,5.50
2022-12-14T02:23:49.652Z,4.50
2022-12-14T02:26:19.364Z,4.97
2022-12-14T02:29:20.382Z,3.90
2022-12-14T02:32:19.105Z,4.77
2022-12-14T02:35:04.049Z,5.27
2022-12-14T02:37:52.983Z,5.50
2022-12-14T02:40:36.928Z,4.53
2022-12-14T02:43:48.968Z,5.50
2022-12-14T02:46:18.537Z,5.10
2022-12-14T02:48:57.264Z,4.77
2022-12-14T02:51:52.648Z,4.80
2022-12-14T02:54:47.122Z,5.00
2022-12-14T02:57:25.423Z,4.53
2022-12-14T02:59:56.508Z,4.10
2022-12-14T03:02:24.123Z,5.10
2022-12-14T03:04:51.266Z,3.80
2022-12-14T03:07:31.648Z,4.47
2022-12-14T03:10:27.257Z,4.73
2022-12-14T03:13:09.078Z,4.07
2022-12-14T03:15:39.815Z,5.07
2022-12-14T03:18:08.925Z,4.23
2022-12-14T03:20:38.748Z,4.30
2022-12-14T03:23:17.917Z,5.27
2022-12-14T03:25:50.435Z,4.30
2022-12-14T03:28:28.856Z,4.00
2022-12-14T03:31:14.429Z,3.77
2022-12-14T03:33:45.089Z,4.60
2022-12-14T03:36:16.224Z,4.10
2022-12-14T03:38:46.507Z,4.40
2022-12-14T03:41:27.574Z,3.60
2022-12-14T03:44:10.342Z,4.57
2022-12-14T03:46:50.411Z,4.67
2022-12-14T03:49:20.351Z,4.00
2022-12-14T03:52:09.366Z,4.50
2022-12-14T03:54:43.270Z,3.30
2022-12-14T03:57:41.464Z,4.00
2022-12-14T04:00:12.180Z,4.00
2022-12-14T04:02:52.305Z,4.27
2022-12-14T04:05:23.985Z,4.27
2022-12-14T04:08:11.610Z,4.27
2022-12-14T04:11:05.793Z,3.93
2022-12-14T04:13:59.747Z,4.00
2022-12-14T04:16:50.091Z,4.20
2022-12-14T04:19:23.401Z,4.30
2022-12-14T04:21:59.041Z,4.60
2022-12-14T04:25:16.822Z,3.77
2022-12-14T04:27:49.322Z,3.77
2022-12-14T04:30:16.618Z,3.67
2022-12-14T04:32:56.168Z,4.60
2022-12-14T04:35:29.871Z,4.10
2022-12-14T04:38:10.927Z,3.57
2022-12-14T04:40:45.223Z,4.70
2022-12-14T04:43:18.472Z,3.80
2022-12-14T04:45:50.967Z,3.73
2022-12-14T04:48:17.636Z,4.30
2022-12-14T04:50:51.096Z,3.77
2022-12-14T04:53:23.620Z,4.13
2022-12-14T04:56:08.768Z,4.37
2022-12-14T04:58:36.403Z,5.13
2022-12-14T05:01:23.970Z,4.93
2022-12-14T05:04:12.491Z,3.80
2022-12-14T05:07:05.101Z,4.90
2022-12-14T05:10:07.371Z,4.53
2022-12-14T05:12:44.518Z,3.80
2022-12-14T05:15:34.494Z,4.20
2022-12-14T05:18:06.189Z,4.70
2022-12-14T05:20:33.512Z,5.17
2022-12-14T05:23:00.247Z,5.30
2022-12-14T05:25:27.101Z,4.47
2022-12-14T05:27:53.839Z,4.20
2022-12-14T05:30:21.171Z,4.07
2022-12-14T05:32:47.989Z,4.50
2022-12-14T05:35:15.298Z,4.10
2022-12-14T05:37:42.747Z,5.03
2022-12-14T05:40:10.576Z,4.90
2022-12-14T05:42:42.754Z,3.90
2022-12-14T05:45:13.025Z,4.20
2022-12-14T05:47:40.100Z,4.90
2022-12-14T05:50:07.892Z,4.73
2022-12-14T05:52:34.901Z,4.67
2022-12-14T05:55:04.417Z,5.20
2022-12-14T05:57:31.845Z,4.90
2022-12-14T05:59:58.611Z,4.00
2022-12-14T06:02:25.712Z,5.20
2022-12-14T06:04:52.579Z,4.90
2022-12-14T06:07:23.111Z,5.07
2022-12-14T06:09:54.211Z,4.63
2022-12-14T06:12:21.053Z,5.10
2022-12-14T06:14:47.822Z,4.20
2022-12-14T06:17:14.524Z,5.10
2022-12-14T06:19:41.193Z,4.03
2022-12-14T06:22:08.000Z,4.60
2022-12-14T06:24:34.956Z,5.23
2022-12-14T06:27:01.752Z,4.50
2022-12-14T06:29:28.483Z,4.50
2022-12-14T06:31:55.219Z,5.10
2022-12-14T06:34:26.486Z,4.47
2022-12-14T06:36:55.255Z,4.30
2022-12-14T06:39:21.995Z,4.23
2022-12-14T06:41:51.907Z,4.37
2022-12-14T06:44:18.969Z,5.00
2022-12-14T06:46:47.094Z,3.90
2022-12-14T06:49:15.209Z,4.90
2022-12-14T06:51:42.565Z,4.40
2022-12-14T06:54:11.824Z,4.23
2022-12-14T06:56:38.975Z,4.60
2022-12-14T06:59:05.839Z,4.80
2022-12-14T07:01:32.988Z,6.00
2022-12-14T07:04:00.219Z,5.70
2022-12-14T07:06:28.865Z,4.33
2022-12-14T07:08:57.329Z,5.30
2022-12-14T07:11:25.480Z,4.83
2022-12-14T07:13:52.995Z,3.97
2022-12-14T07:16:25.756Z,5.97
2022-12-14T07:18:54.355Z,5.20
2022-12-14T07:21:21.978Z,5.70
2022-12-14T07:23:51.721Z,6.50
2022-12-14T07:26:24.843Z,4.87
2022-12-14T07:28:52.218Z,5.27
2022-12-14T07:31:22.236Z,4.80
2022-12-14T07:33:49.713Z,4.70
2022-12-14T07:36:18.801Z,4.63
2022-12-14T07:38:47.629Z,5.33
2022-12-14T07:41:23.668Z,6.33
2022-12-14T07:43:52.047Z,5.37
2022-12-14T07:46:21.863Z,5.50
2022-12-14T07:48:51.336Z,5.50
2022-12-14T07:51:20.997Z,5.40
2022-12-14T07:53:48.877Z,5.70
2022-12-14T07:56:18.501Z,5.90
2022-12-14T07:58:45.529Z,6.67
2022-12-14T08:01:15.244Z,5.63
2022-12-14T08:03:45.811Z,6.17
2022-12-14T08:06:13.901Z,5.00
2022-12-14T08:08:41.483Z,4.80
2022-12-14T08:11:09.395Z,5.27
2022-12-14T08:13:38.639Z,4.50
2022-12-14T08:16:10.459Z,5.37
2022-12-14T08:18:37.355Z,5.00
2022-12-14T08:21:05.923Z,5.20
2022-12-14T08:23:33.479Z,5.70
2022-12-14T08:26:01.772Z,5.97
2022-12-14T08:28:30.076Z,5.50
2022-12-14T08:30:57.672Z,5.47
2022-12-14T08:33:24.874Z,5.23
2022-12-14T08:35:51.728Z,4.80
2022-12-14T08:38:18.512Z,5.83
2022-12-14T08:40:45.258Z,5.57
2022-12-14T08:43:12.181Z,5.60
2022-12-14T08:45:38.952Z,6.10
2022-12-14T08:48:05.828Z,5.70
2022-12-14T08:50:32.558Z,5.97
2022-12-14T08:52:59.761Z,5.90
2022-12-14T08:55:30.261Z,5.83
2022-12-14T08:57:59.298Z,5.30
2022-12-14T09:00:26.084Z,5.33
2022-12-14T09:02:54.283Z,5.60
2022-12-14T09:05:21.195Z,5.97
2022-12-14T09:07:47.905Z,6.17
2022-12-14T09:10:15.380Z,6.30
2022-12-14T09:12:42.073Z,6.10
2022-12-14T09:15:09.321Z,6.37
2022-12-14T09:17:36.091Z,6.40
2022-12-14T09:20:03.772Z,6.13
2022-12-14T09:22:30.683Z,5.77
2022-12-14T09:24:57.416Z,6.40
2022-12-14T09:27:24.277Z,6.07
2022-12-14T09:29:51.259Z,6.07
2022-12-14T09:32:17.985Z,7.00
2022-12-14T09:34:44.665Z,5.50
2022-12-14T09:37:12.520Z,6.17
2022-12-14T09:39:39.305Z,6.77
2022-12-14T09:42:39.919Z,6.50
2022-12-14T09:45:28.806Z,7.50
2022-12-14T09:48:20.384Z,6.57
2022-12-14T09:50:49.815Z,6.90
2022-12-14T09:53:18.489Z,6.20
2022-12-14T09:55:48.198Z,6.70
2022-12-14T09:58:21.020Z,6.23
2022-12-14T10:01:24.816Z,7.80
2022-12-14T10:04:06.718Z,6.63
2022-12-14T10:06:51.264Z,5.90
2022-12-14T10:09:36.381Z,7.07
2022-12-14T10:12:05.891Z,8.00
2022-12-14T10:15:03.819Z,8.70
2022-12-14T10:17:39.353Z,7.23
2022-12-14T10:20:18.662Z,6.30
2022-12-14T10:22:49.581Z,7.57
2022-12-14T10:25:18.851Z,7.20
2022-12-14T10:30:42.651Z,7.97
2022-12-14T10:33:22.535Z,6.93
2022-12-14T10:36:04.661Z,9.60
2022-12-14T10:38:46.062Z,8.60
2022-12-14T10:41:34.232Z,9.30
2022-12-14T10:44:21.250Z,8.07
2022-12-14T10:47:29.782Z,7.40
2022-12-14T10:50:18.821Z,7.77
2022-12-14T10:52:48.983Z,7.93
2022-12-14T10:55:24.759Z,8.70
2022-12-14T10:57:51.445Z,8.57
2022-12-14T11:00:22.786Z,8.53
2022-12-14T11:02:55.915Z,9.27
2022-12-14T11:05:39.858Z,8.57
2022-12-14T11:08:07.864Z,8.77
2022-12-14T11:10:36.664Z,8.20
2022-12-14T11:13:20.665Z,8.33
2022-12-14T11:15:49.800Z,8.30
2022-12-14T11:18:16.572Z,9.10
2022-12-14T11:20:54.324Z,7.93
2022-12-14T11:23:25.429Z,8.23
2022-12-14T11:25:58.961Z,8.47
2022-12-14T11:28:39.633Z,9.00
2022-12-14T11:31:11.764Z,9.03
2022-12-14T11:33:39.990Z,9.13
2022-12-14T11:36:10.184Z,9.27
2022-12-14T11:38:37.039Z,8.57
2022-12-14T11:41:10.962Z,8.97
2022-12-14T11:43:38.948Z,9.57
2022-12-14T11:46:06.181Z,10.77
2022-12-14T11:48:38.461Z,10.27
2022-12-14T11:51:10.790Z,9.10
2022-12-14T11:53:37.572Z,9.03
2022-12-14T11:56:07.691Z,8.83
2022-12-14T11:58:39.386Z,9.57
2022-12-14T12:01:15.383Z,9.03
2022-12-14T12:03:46.919Z,8.47
2022-12-14T12:06:25.088Z,8.53
2022-12-14T12:09:00.539Z,10.20
2022-12-14T12:11:33.401Z,8.70
2022-12-14T12:14:18.602Z,9.33
2022-12-14T12:16:45.634Z,10.20
2022-12-14T12:19:18.916Z,9.03
2022-12-14T12:21:45.945Z,9.37
2022-12-14T12:24:22.005Z,9.60
2022-12-14T12:26:58.000Z,8.63
2022-12-14T12:29:28.134Z,8.57
2022-12-14T12:32:03.672Z,9.70
2022-12-14T12:34:42.508Z,8.70
2022-12-14T12:37:26.271Z,9.60
2022-12-14T12:40:00.718Z,8.73
2022-12-14T12:42:56.999Z,10.07
2022-12-14T12:45:43.496Z,10.20
2022-12-14T12:48:32.176Z,9.30
2022-12-14T12:51:07.615Z,9.53
2022-12-14T12:53:44.605Z,8.93
2022-12-14T12:56:15.737Z,9.30
2022-12-14T12:58:50.652Z,9.23
2022-12-14T13:01:27.880Z,9.53
2022-12-14T13:03:59.798Z,9.90
2022-12-14T13:06:52.434Z,11.43
2022-12-14T13:09:31.288Z,9.93
2022-12-14T13:11:58.556Z,9.63
2022-12-14T13:14:44.302Z,9.77
2022-12-14T13:17:35.001Z,8.70
2022-12-14T13:20:07.251Z,11.10
2022-12-14T13:22:35.696Z,10.33
2022-12-14T13:25:12.985Z,12.03
2022-12-14T13:27:57.872Z,11.10
2022-12-14T13:30:45.901Z,10.90
2022-12-14T13:33:30.148Z,11.43
2022-12-14T13:36:15.419Z,9.90
2022-12-14T13:39:20.548Z,10.50
2022-12-14T13:41:59.604Z,11.20
2022-12-14T13:44:51.303Z,10.57
2022-12-14T13:47:22.666Z,11.20
2022-12-14T13:50:26.814Z,15.20
2022-12-14T13:52:48.015Z,9.90
2022-12-14T13:55:27.542Z,11.13
2022-12-14T13:58:25.866Z,11.37
2022-12-14T14:00:56.262Z,10.17
2022-12-14T14:03:41.562Z,11.37
2022-12-14T14:06:23.545Z,11.97
2022-12-14T14:08:52.388Z,10.20
2022-12-14T14:14:45.210Z,10.93
2022-12-14T14:17:38.482Z,11.60
2022-12-14T14:20:27.056Z,11.00
2022-12-14T14:23:18.283Z,10.83
2022-12-14T14:26:16.182Z,11.57
2022-12-14T14:28:43.172Z,10.37
2022-12-14T14:31:16.314Z,11.53
2022-12-14T14:33:50.132Z,11.10
2022-12-14T14:36:16.824Z,10.67
2022-12-14T14:38:43.939Z,12.13
2022-12-14T14:41:16.916Z,12.13
2022-12-14T14:43:54.120Z,12.10
2022-12-14T14:46:32.913Z,11.40
2022-12-14T14:49:00.668Z,11.17
2022-12-14T14:51:30.128Z,17.23
2022-12-14T14:55:06.454Z,12.77
2022-12-14T14:57:54.100Z,12.77
2022-12-14T15:00:21.064Z,11.13
2022-12-14T15:02:53.853Z,12.60
2022-12-14T15:05:42.909Z,12.40
2022-12-14T15:08:28.137Z,11.93
2022-12-14T15:10:56.080Z,12.90
2022-12-14T15:13:32.434Z,11.20
2022-12-14T15:15:59.705Z,11.77
2022-12-14T15:18:30.523Z,11.63
2022-12-14T15:21:06.834Z,11.70
2022-12-14T15:23:39.569Z,12.30
2022-12-14T15:26:17.384Z,11.30
2022-12-14T15:28:58.172Z,10.90
2022-12-14T15:31:40.280Z,10.97
2022-12-14T15:34:12.005Z,11.63
2022-12-14T15:36:42.313Z,11.77
2022-12-14T15:39:28.872Z,11.87
2022-12-14T15:42:09.247Z,12.50
2022-12-14T15:44:36.063Z,11.00
2022-12-14T15:47:02.924Z,11.73
2022-12-14T15:49:29.744Z,11.50
2022-12-14T15:51:58.032Z,10.93
2022-12-14T15:54:26.075Z,10.93
2022-12-14T15:56:58.558Z,11.60
2022-12-14T15:59:32.001Z,10.87
2022-12-14T16:02:24.111Z,12.13
2022-12-14T16:04:52.302Z,11.50
2022-12-14T16:07:25.285Z,13.23
2022-12-14T16:09:56.223Z,10.90
2022-12-14T16:12:49.234Z,11.47
2022-12-14T16:15:27.968Z,11.03
2022-12-14T16:18:02.155Z,12.10
2022-12-14T16:20:32.538Z,11.60
2022-12-14T16:22:59.483Z,10.97
2022-12-14T16:25:26.322Z,11.53
2022-12-14T16:27:53.948Z,11.90
2022-12-14T16:30:32.710Z,13.03
2022-12-14T16:33:11.405Z,11.63
2022-12-14T16:35:38.389Z,12.00
2022-12-14T16:38:15.101Z,13.23
2022-12-14T16:40:56.108Z,11.83
2022-12-14T16:43:40.844Z,12.07
2022-12-14T16:46:13.750Z,12.33
2022-12-14T16:48:44.570Z,14.30
2022-12-14T16:51:44.524Z,12.20
2022-12-14T16:54:23.986Z,13.67
2022-12-14T16:56:57.508Z,13.13
2022-12-14T16:59:43.766Z,13.03
2022-12-14T17:02:30.665Z,12.97
2022-12-14T17:04:59.931Z,14.00
2022-12-14T17:07:30.004Z,12.47
2022-12-14T17:09:57.037Z,11.10
2022-12-14T17:12:26.040Z,12.53
2022-12-14T17:14:53.958Z,12.83
2022-12-14T17:17:34.946Z,12.70
2022-12-14T17:20:07.997Z,13.90
2022-12-14T17:22:37.378Z,13.27
2022-12-14T17:25:04.780Z,12.70
2022-12-14T17:27:31.484Z,14.40
2022-12-14T17:29:58.304Z,13.73
2022-12-14T17:32:30.113Z,14.20
2022-12-14T17:34:57.611Z,13.30
2022-12-14T17:37:27.657Z,12.57
2022-12-14T17:39:59.737Z,12.60
2022-12-14T17:42:26.642Z,12.47
2022-12-14T17:44:58.002Z,12.87
2022-12-14T17:47:25.276Z,12.40
2022-12-14T17:49:52.208Z,12.97
2022-12-14T17:52:23.962Z,13.20
2022-12-14T17:54:50.767Z,15.43
2022-12-14T17:57:20.353Z,13.70
2022-12-14T17:59:47.966Z,13.60
2022-12-14T18:02:25.646Z,18.27
2022-12-14T18:04:53.149Z,15.70
2022-12-14T18:07:19.987Z,14.17
2022-12-14T18:09:47.875Z,14.00
2022-12-14T18:12:25.282Z,11.80
2022-12-14T18:14:52.498Z,13.87
2022-12-14T18:17:19.369Z,13.20
2022-12-14T18:19:47.946Z,12.90
2022-12-14T18:22:16.585Z,12.77
2022-12-14T18:24:43.265Z,13.83
2022-12-14T18:27:13.410Z,13.40
2022-12-14T18:29:40.247Z,12.43
2022-12-14T18:32:06.996Z,13.33
2022-12-14T18:34:34.085Z,13.07
2022-12-14T18:37:00.732Z,14.10
2022-12-14T18:39:27.386Z,12.87
2022-12-14T18:41:54.735Z,13.30
2022-12-14T18:44:22.344Z,14.70
2022-12-14T18:46:49.427Z,13.53
2022-12-14T18:49:16.603Z,13.87
2022-12-14T18:51:43.680Z,13.23
2022-12-14T18:54:11.524Z,13.97
2022-12-14T18:56:41.355Z,12.83
2022-12-14T18:59:08.029Z,14.57
2022-12-14T19:01:34.918Z,13.90
2022-12-14T19:04:01.768Z,14.30
2022-12-14T19:06:44.613Z,13.60
2022-12-14T19:09:13.849Z,15.70
2022-12-14T19:11:42.056Z,15.03
2022-12-14T19:14:09.326Z,14.97
2022-12-14T19:16:36.301Z,12.87
2022-12-14T19:19:03.383Z,13.70
2022-12-14T19:21:31.305Z,14.13
2022-12-14T19:23:59.591Z,13.77
2022-12-14T19:26:28.320Z,15.70
2022-12-14T19:28:55.265Z,13.87
2022-12-14T19:31:22.185Z,15.60
2022-12-14T19:33:48.979Z,13.60
2022-12-14T19:36:15.741Z,14.07
2022-12-14T19:38:42.442Z,15.50
2022-12-14T19:41:11.719Z,14.47
2022-12-14T19:43:38.525Z,29.63
2022-12-14T19:46:07.134Z,14.90
2022-12-14T19:48:34.299Z,15.93
2022-12-14T19:51:05.671Z,17.40
2022-12-14T19:53:34.034Z,17.60
2022-12-14T19:56:01.227Z,17.20
2022-12-14T19:58:28.689Z,18.20
2022-12-14T20:00:55.889Z,15.57
2022-12-14T20:03:23.363Z,16.90
2022-12-14T20:05:55.143Z,14.47
2022-12-14T20:08:23.128Z,14.63
2022-12-14T20:10:49.945Z,14.60
2022-12-14T20:13:17.382Z,15.20
2022-12-14T20:15:52.829Z,16.10
2022-12-14T20:18:21.157Z,15.60
2022-12-14T20:20:49.580Z,15.53
2022-12-14T20:23:18.499Z,15.50
2022-12-14T20:25:45.256Z,19.20
2022-12-14T20:28:12.273Z,15.67
2022-12-14T20:30:43.986Z,15.00
2022-12-14T20:33:11.992Z,15.40
2022-12-14T20:35:38.946Z,16.03
2022-12-14T20:38:05.743Z,14.07
2022-12-14T20:40:37.972Z,15.90
2022-12-14T20:43:06.844Z,15.13
2022-12-14T20:45:38.659Z,14.83
2022-12-14T20:48:06.914Z,14.67
2022-12-14T20:50:37.867Z,15.23
2022-12-14T20:53:05.195Z,16.10
2022-12-14T20:55:32.506Z,14.47
2022-12-14T20:57:59.148Z,15.10
2022-12-14T21:00:26.645Z,15.03
2022-12-14T21:02:53.798Z,14.13
2022-12-14T21:05:20.607Z,14.93
2022-12-14T21:07:47.401Z,15.80
2022-12-14T21:10:14.149Z,16.20
2022-12-14T21:12:40.906Z,14.80
2022-12-14T21:15:08.279Z,15.97
2022-12-14T21:17:35.048Z,16.60
2022-12-14T21:20:01.921Z,15.80
2022-12-14T21:22:30.379Z,15.23
2022-12-14T21:25:06.023Z,21.33
2022-12-14T21:27:35.033Z,18.40
2022-12-14T21:30:02.168Z,15.70
2022-12-14T21:32:29.064Z,16.20
2022-12-14T21:34:55.920Z,17.10
2022-12-14T21:37:22.902Z,16.27
2022-12-14T21:39:54.958Z,16.67
2022-12-14T21:42:25.937Z,16.57
2022-12-14T21:44:54.079Z,15.30
2022-12-14T21:47:23.869Z,16.00
2022-12-14T21:49:50.891Z,21.97
2022-12-14T21:52:24.257Z,16.53
2022-12-14T21:54:50.977Z,15.30
2022-12-14T21:57:38.765Z,16.50
2022-12-14T22:00:08.253Z,16.33
2022-12-14T22:02:35.104Z,17.17
2022-12-14T22:05:01.923Z,16.90
2022-12-14T22:07:34.209Z,17.10
2022-12-14T22:10:01.484Z,17.60
2022-12-14T22:12:28.234Z,17.73
2022-12-14T22:14:54.947Z,17.20
2022-12-14T22:17:21.674Z,16.90
2022-12-14T22:19:50.898Z,16.27
2022-12-14T22:22:18.279Z,17.37
2022-12-14T22:24:48.525Z,17.60
2022-12-14T22:27:15.315Z,16.97
2022-12-14T22:29:41.990Z,18.40
2022-12-14T22:32:11.678Z,19.90
2022-12-14T22:34:38.459Z,20.53
2022-12-14T22:37:05.314Z,21.73
2022-12-14T22:39:32.136Z,21.30
2022-12-14T22:41:58.779Z,20.20
2022-12-14T22:44:25.490Z,22.20
2022-12-14T22:46:52.136Z,21.43
2022-12-14T22:49:19.655Z,20.63
2022-12-14T22:51:46.405Z,20.20
2022-12-14T22:54:27.324Z,21.23
2022-12-14T22:56:57.183Z,21.50
2022-12-14T22:59:36.866Z,21.33
2022-12-14T23:02:04.097Z,23.47
2022-12-14T23:04:31.179Z,21.30
2022-12-14T23:06:57.875Z,21.27
2022-12-14T23:09:43.407Z,23.30
2022-12-14T23:12:29.002Z,22.73
2022-12-14T23:15:14.416Z,21.87
2022-12-14T23:17:59.805Z,20.80
2022-12-14T23:20:45.307Z,19.53
2022-12-14T23:23:31.153Z,21.50
2022-12-14T23:26:20.642Z,21.37
2022-12-14T23:29:05.757Z,21.30
2022-12-14T23:31:50.944Z,21.50
2022-12-14T23:34:36.334Z,21.30
2022-12-14T23:37:21.822Z,20.10
2022-12-14T23:40:06.979Z,21.97
2022-12-14T23:42:52.204Z,20.90
2022-12-14T23:45:37.790Z,19.27
2022-12-14T23:48:23.466Z,22.83
2022-12-14T23:51:08.568Z,22.27
2022-12-14T23:53:53.885Z,24.30
2022-12-14T23:56:39.378Z,22.70
2022-12-14T23:59:29.828Z,23.00
